createdAt,value
2019-05-02T00:01:18.032Z,3.70
2019-05-02T00:03:51.121Z,3.95
2019-05-02T00:06:23.980Z,4.07
2019-05-02T00:08:56.919Z,3.80
2019-05-02T00:11:31.132Z,3.42
2019-05-02T00:14:04.353Z,3.36
2019-05-02T00:16:37.520Z,3.35
2019-05-02T00:19:13.985Z,3.39
2019-05-02T00:21:46.366Z,3.38
2019-05-02T00:24:19.404Z,3.51
2019-05-02T00:26:56.062Z,3.65
2019-05-02T00:29:26.712Z,3.62
2019-05-02T00:31:59.500Z,3.46
2019-05-02T00:34:32.329Z,3.25
2019-05-02T00:37:05.244Z,3.22
2019-05-02T00:39:38.030Z,3.35
2019-05-02T00:42:12.933Z,3.36
2019-05-02T00:44:47.004Z,3.43
2019-05-02T00:47:42.279Z,3.36
2019-05-02T00:50:13.354Z,3.30
2019-05-02T00:52:45.894Z,3.14
2019-05-02T00:55:18.784Z,3.04
2019-05-02T00:57:55.722Z,3.01
2019-05-02T01:00:26.173Z,2.96
2019-05-02T01:03:11.247Z,3.22
2019-05-02T01:05:43.142Z,3.05
2019-05-02T01:08:16.173Z,2.92
2019-05-02T01:10:52.191Z,2.83
2019-05-02T01:13:23.677Z,2.93
2019-05-02T01:15:56.803Z,3.01
2019-05-02T01:18:29.859Z,3.04
2019-05-02T01:21:04.159Z,3.15
2019-05-02T01:23:37.027Z,3.25
2019-05-02T01:26:11.180Z,3.24
2019-05-02T01:29:08.812Z,2.93
2019-05-02T01:32:12.518Z,2.85
2019-05-02T01:34:54.371Z,2.83
2019-05-02T01:37:33.114Z,2.96
2019-05-02T01:40:06.219Z,3.03
2019-05-02T01:42:40.200Z,2.94
2019-05-02T01:45:14.144Z,2.93
2019-05-02T01:47:46.992Z,2.82
2019-05-02T01:50:19.968Z,2.79
2019-05-02T01:52:53.710Z,2.73
2019-05-02T01:55:27.350Z,2.75
2019-05-02T01:58:00.130Z,2.66
2019-05-02T02:00:33.000Z,2.78
2019-05-02T02:03:09.149Z,2.79
2019-05-02T02:05:40.633Z,2.80
2019-05-02T02:08:12.648Z,2.71
2019-05-02T02:10:45.430Z,2.67
2019-05-02T02:13:18.574Z,2.81
2019-05-02T02:15:51.556Z,3.04
2019-05-02T02:18:27.508Z,3.22
2019-05-02T02:21:13.016Z,3.02
2019-05-02T02:23:52.693Z,2.60
2019-05-02T02:26:25.671Z,2.46
2019-05-02T02:28:58.439Z,2.39
2019-05-02T02:31:31.399Z,2.53
2019-05-02T02:34:03.400Z,2.61
2019-05-02T02:36:36.171Z,2.76
2019-05-02T02:39:13.992Z,2.95
2019-05-02T02:41:45.181Z,2.85
2019-05-02T02:44:26.165Z,2.61
2019-05-02T02:46:59.206Z,2.54
2019-05-02T02:49:31.562Z,2.44
2019-05-02T02:52:06.619Z,2.43
2019-05-02T02:54:43.550Z,2.42
2019-05-02T02:57:23.753Z,2.61
2019-05-02T02:59:48.500Z,2.70
2019-05-02T03:02:21.353Z,2.82
2019-05-02T03:04:54.264Z,2.84
2019-05-02T03:07:28.858Z,2.75
2019-05-02T03:10:06.023Z,2.66
2019-05-02T03:12:57.637Z,2.64
2019-05-02T03:15:32.651Z,2.71
2019-05-02T03:18:05.582Z,2.93
2019-05-02T03:20:40.641Z,3.02
2019-05-02T03:23:15.069Z,3.03
2019-05-02T03:25:51.150Z,3.02
2019-05-02T03:28:22.566Z,2.93
2019-05-02T03:30:55.338Z,2.90
2019-05-02T03:33:28.352Z,2.92
2019-05-02T03:36:01.513Z,3.00
2019-05-02T03:38:35.208Z,2.86
2019-05-02T03:41:13.464Z,2.77
2019-05-02T03:43:42.926Z,2.83
2019-05-02T03:46:20.546Z,2.76
2019-05-02T03:48:50.424Z,2.66
2019-05-02T03:51:25.157Z,2.68
2019-05-02T03:54:07.785Z,2.70
2019-05-02T03:56:34.219Z,2.65
2019-05-02T03:59:07.048Z,2.57
2019-05-02T04:01:41.321Z,2.55
2019-05-02T04:04:20.679Z,2.50
2019-05-02T04:06:55.045Z,2.44
2019-05-02T04:09:42.143Z,2.54
2019-05-02T04:12:18.316Z,2.48
2019-05-02T04:14:45.021Z,2.53
2019-05-02T04:17:19.722Z,2.55
2019-05-02T04:19:52.174Z,2.43
2019-05-02T04:22:25.383Z,2.52
2019-05-02T04:24:58.628Z,2.54
2019-05-02T04:27:35.885Z,2.57
2019-05-02T04:30:13.589Z,2.49
2019-05-02T04:32:49.747Z,2.38
2019-05-02T04:35:18.184Z,2.40
2019-05-02T04:37:51.080Z,2.51
2019-05-02T04:40:24.200Z,2.72
2019-05-02T04:43:05.506Z,2.91
2019-05-02T04:45:47.346Z,3.05
2019-05-02T04:48:08.483Z,3.26
2019-05-02T04:50:41.106Z,3.37
2019-05-02T04:53:13.977Z,3.44
2019-05-02T04:56:01.791Z,3.50
2019-05-02T04:58:27.641Z,3.44
2019-05-02T05:01:01.558Z,3.43
2019-05-02T05:03:32.633Z,3.41
2019-05-02T05:06:12.038Z,3.47
2019-05-02T05:08:43.639Z,3.63
2019-05-02T05:11:20.739Z,3.80
2019-05-02T05:13:52.378Z,4.04
2019-05-02T05:16:24.504Z,4.26
2019-05-02T05:27:52.498Z,4.90
2019-05-02T05:30:37.623Z,4.88
2019-05-02T05:33:11.381Z,5.01
2019-05-02T05:35:48.739Z,5.09
2019-05-02T05:38:22.962Z,5.31
2019-05-02T05:41:02.958Z,5.51
2019-05-02T05:43:37.957Z,5.66
2019-05-02T05:46:14.012Z,5.87
2019-05-02T05:48:48.923Z,6.15
2019-05-02T05:51:23.468Z,6.37
2019-05-02T05:54:03.116Z,6.68
2019-05-02T05:56:39.678Z,7.04
2019-05-02T05:59:11.583Z,7.26
2019-05-02T06:01:48.391Z,7.32
2019-05-02T06:04:33.348Z,7.48
2019-05-02T06:07:20.177Z,7.66
2019-05-02T06:09:57.580Z,7.91
2019-05-02T06:12:35.501Z,8.31
2019-05-02T06:18:24.783Z,9.07
2019-05-02T06:21:08.204Z,9.47
2019-05-02T06:23:41.702Z,9.77
2019-05-02T06:26:15.817Z,9.79
2019-05-02T06:28:52.841Z,10.68
2019-05-02T06:31:29.699Z,10.59
2019-05-02T06:34:07.053Z,10.83
2019-05-02T06:36:38.124Z,11.06
2019-05-02T06:39:14.062Z,11.07
2019-05-02T06:41:52.007Z,11.07
2019-05-02T06:44:25.386Z,11.19
2019-05-02T06:46:59.343Z,11.47
2019-05-02T06:49:34.726Z,11.60
2019-05-02T06:52:08.448Z,11.71
2019-05-02T06:54:41.477Z,11.73
2019-05-02T06:57:14.131Z,11.88
2019-05-02T06:59:54.996Z,12.14
2019-05-02T07:02:33.659Z,12.22
2019-05-02T07:05:04.515Z,12.54
2019-05-02T07:07:41.893Z,12.45
2019-05-02T07:10:14.831Z,12.45
2019-05-02T07:12:51.176Z,12.33
2019-05-02T07:15:40.606Z,12.58
2019-05-02T07:18:17.094Z,13.20
2019-05-02T07:20:50.941Z,14.23
2019-05-02T07:23:24.301Z,14.82
2019-05-02T07:25:59.899Z,14.94
2019-05-02T07:28:32.073Z,14.09
2019-05-02T07:31:06.548Z,14.51
2019-05-02T07:33:39.728Z,15.02
2019-05-02T07:36:12.512Z,15.08
2019-05-02T07:38:44.839Z,15.67
2019-05-02T07:41:17.652Z,15.90
2019-05-02T07:43:52.062Z,15.86
2019-05-02T07:46:24.891Z,16.03
2019-05-02T07:48:57.552Z,16.59
2019-05-02T07:51:30.631Z,16.02
2019-05-02T07:54:03.318Z,16.78
2019-05-02T07:56:35.847Z,17.33
2019-05-02T07:59:08.567Z,18.15
2019-05-02T08:01:44.877Z,18.35
2019-05-02T08:04:15.647Z,17.98
2019-05-02T08:06:48.942Z,18.70
2019-05-02T08:09:22.210Z,19.57
2019-05-02T08:11:54.610Z,20.15
2019-05-02T08:14:29.283Z,20.25
2019-05-02T08:17:05.672Z,20.03
2019-05-02T08:19:41.812Z,19.27
2019-05-02T08:22:14.546Z,19.80
2019-05-02T08:24:47.742Z,19.96
2019-05-02T08:27:39.332Z,20.65
2019-05-02T08:30:40.413Z,20.11
2019-05-02T08:33:10.445Z,19.34
2019-05-02T08:35:43.579Z,19.38
2019-05-02T08:38:17.792Z,18.87
2019-05-02T08:40:51.128Z,18.79
2019-05-02T08:43:23.547Z,18.51
2019-05-02T08:45:56.636Z,19.81
2019-05-02T08:48:29.163Z,20.60
2019-05-02T08:51:01.613Z,20.67
2019-05-02T08:53:34.853Z,20.69
2019-05-02T08:56:07.522Z,21.10
2019-05-02T08:58:44.887Z,21.68
2019-05-02T09:01:15.533Z,21.87
2019-05-02T09:03:55.325Z,21.42
2019-05-02T09:06:24.178Z,21.18
2019-05-02T09:08:57.118Z,20.95
2019-05-02T09:11:29.512Z,20.77
2019-05-02T09:14:03.174Z,20.91
2019-05-02T09:16:35.856Z,20.64
2019-05-02T09:19:08.184Z,20.64
2019-05-02T09:21:40.636Z,21.86
2019-05-02T09:24:20.954Z,22.02
2019-05-02T09:26:51.776Z,21.73
2019-05-02T09:29:24.405Z,22.21
2019-05-02T09:31:57.651Z,22.61
2019-05-02T09:34:31.935Z,23.57
2019-05-02T09:37:04.979Z,23.96
2019-05-02T09:39:38.101Z,21.62
2019-05-02T09:42:15.038Z,21.05
2019-05-02T09:44:47.996Z,21.83
2019-05-02T09:47:27.232Z,22.17
2019-05-02T09:50:29.524Z,22.78
2019-05-02T09:52:58.515Z,22.55
2019-05-02T09:55:31.833Z,21.68
2019-05-02T09:58:04.890Z,22.74
2019-05-02T10:00:55.560Z,23.61
2019-05-02T10:03:28.581Z,22.81
2019-05-02T10:06:03.125Z,23.52
2019-05-02T10:08:38.404Z,23.62
2019-05-02T10:11:11.748Z,24.18
2019-05-02T10:13:44.167Z,23.96
2019-05-02T10:16:17.972Z,23.15
2019-05-02T10:18:52.389Z,21.79
2019-05-02T10:21:25.602Z,20.23
2019-05-02T10:23:59.788Z,19.59
2019-05-02T10:26:33.209Z,19.62
2019-05-02T10:29:06.723Z,19.46
2019-05-02T10:31:41.963Z,20.18
2019-05-02T10:34:17.595Z,19.84
2019-05-02T10:36:54.232Z,18.80
2019-05-02T10:39:23.875Z,18.62
2019-05-02T10:41:57.610Z,17.87
2019-05-02T10:44:32.834Z,17.50
2019-05-02T10:47:05.234Z,17.46
2019-05-02T10:49:46.442Z,17.44
2019-05-02T10:52:21.579Z,17.29
2019-05-02T10:54:54.054Z,16.92
2019-05-02T10:57:27.004Z,16.26
2019-05-02T11:00:00.156Z,15.50
2019-05-02T11:02:53.820Z,15.06
2019-05-02T11:05:27.132Z,14.60
2019-05-02T11:08:06.225Z,14.18
2019-05-02T11:10:37.011Z,13.77
2019-05-02T11:13:38.957Z,13.17
2019-05-02T11:16:26.409Z,12.68
2019-05-02T11:19:07.380Z,12.50
2019-05-02T11:21:46.743Z,12.40
2019-05-02T11:24:14.884Z,12.26
2019-05-02T11:26:47.870Z,12.12
2019-05-02T11:29:20.354Z,12.15
2019-05-02T11:31:53.192Z,12.11
2019-05-02T11:34:26.066Z,12.11
2019-05-02T11:36:58.935Z,12.07
2019-05-02T11:39:42.299Z,12.30
2019-05-02T11:42:06.564Z,12.58
2019-05-02T11:44:39.377Z,12.37
2019-05-02T11:47:12.675Z,12.24
2019-05-02T11:49:46.815Z,12.11
2019-05-02T11:52:22.146Z,12.21
2019-05-02T11:54:55.098Z,12.13
2019-05-02T11:57:30.264Z,11.82
2019-05-02T12:00:05.186Z,11.71
2019-05-02T12:02:58.303Z,11.54
2019-05-02T12:05:44.487Z,11.41
2019-05-02T12:08:17.364Z,11.54
2019-05-02T12:10:51.943Z,11.88
2019-05-02T12:13:25.069Z,12.12
2019-05-02T12:15:58.007Z,12.56
2019-05-02T12:18:32.576Z,12.83
2019-05-02T12:21:05.811Z,13.06
2019-05-02T12:23:38.817Z,13.18
2019-05-02T12:26:12.392Z,13.36
2019-05-02T12:28:45.321Z,13.48
2019-05-02T12:31:32.768Z,13.65
2019-05-02T12:34:07.293Z,13.78
2019-05-02T12:36:40.288Z,13.98
2019-05-02T12:39:13.211Z,13.98
2019-05-02T12:41:46.554Z,13.92
2019-05-02T12:44:19.648Z,13.98
2019-05-02T12:46:52.486Z,13.58
2019-05-02T12:49:27.989Z,13.33
2019-05-02T12:52:01.745Z,13.30
2019-05-02T12:54:34.795Z,13.31
2019-05-02T12:57:07.645Z,13.27
2019-05-02T12:59:41.658Z,13.15
2019-05-02T13:02:22.403Z,13.33
2019-05-02T13:04:55.354Z,13.42
2019-05-02T13:07:28.213Z,13.45
2019-05-02T13:10:02.395Z,13.68
2019-05-02T13:12:37.663Z,13.55
2019-05-02T13:15:12.848Z,13.77
2019-05-02T13:17:48.794Z,14.22
2019-05-02T13:20:24.749Z,14.47
2019-05-02T13:23:27.445Z,15.74
2019-05-02T13:25:59.948Z,16.09
2019-05-02T13:28:35.047Z,16.70
2019-05-02T13:31:25.599Z,16.25
2019-05-02T13:34:11.931Z,16.20
2019-05-02T13:36:47.899Z,16.68
2019-05-02T13:39:36.922Z,16.78
2019-05-02T13:42:12.448Z,17.30
2019-05-02T13:44:52.698Z,17.18
2019-05-02T13:47:26.232Z,17.38
2019-05-02T13:50:01.053Z,16.35
2019-05-02T13:52:33.992Z,15.63
2019-05-02T13:55:11.807Z,14.98
2019-05-02T13:57:46.831Z,15.34
2019-05-02T14:00:27.136Z,14.76
2019-05-02T14:03:00.179Z,14.65
2019-05-02T14:05:33.766Z,14.17
2019-05-02T14:08:22.684Z,13.90
2019-05-02T14:11:01.946Z,14.25
2019-05-02T14:13:35.078Z,14.86
2019-05-02T14:16:08.041Z,15.28
2019-05-02T14:18:42.085Z,15.67
2019-05-02T14:21:14.918Z,15.45
2019-05-02T14:23:48.065Z,15.31
2019-05-02T14:26:29.660Z,14.49
2019-05-02T14:28:55.575Z,13.98
2019-05-02T14:31:28.385Z,13.59
2019-05-02T14:34:21.722Z,13.28
2019-05-02T14:36:59.198Z,12.79
2019-05-02T14:39:28.999Z,12.64
2019-05-02T14:42:02.214Z,12.45
2019-05-02T14:45:01.457Z,12.26
2019-05-02T14:47:10.019Z,12.40
2019-05-02T14:49:44.303Z,12.56
2019-05-02T14:52:17.276Z,12.92
2019-05-02T14:54:51.882Z,13.13
2019-05-02T14:57:27.043Z,13.39
2019-05-02T15:00:01.171Z,13.97
2019-05-02T15:02:49.021Z,14.87
2019-05-02T15:05:24.098Z,14.63
2019-05-02T15:07:56.908Z,14.61
2019-05-02T15:10:28.054Z,14.69
2019-05-02T15:13:02.057Z,14.30
2019-05-02T15:15:40.834Z,14.00
2019-05-02T15:18:13.460Z,14.26
2019-05-02T15:20:44.564Z,14.83
2019-05-02T15:23:19.727Z,15.54
2019-05-02T15:25:55.930Z,15.51
2019-05-02T15:28:31.984Z,15.06
2019-05-02T15:31:11.870Z,15.21
2019-05-02T15:33:51.869Z,14.95
2019-05-02T15:36:24.838Z,14.67
2019-05-02T15:41:33.685Z,14.72
2019-05-02T15:44:07.157Z,14.37
2019-05-02T15:46:40.305Z,14.07
2019-05-02T15:49:13.658Z,13.85
2019-05-02T15:51:49.832Z,13.33
2019-05-02T15:54:22.735Z,13.21
2019-05-02T15:57:05.436Z,13.38
2019-05-02T15:59:42.340Z,13.39
2019-05-02T16:02:17.713Z,13.40
2019-05-02T16:04:52.250Z,13.45
2019-05-02T16:07:25.221Z,13.60
2019-05-02T16:10:01.107Z,13.54
2019-05-02T16:12:36.047Z,13.59
2019-05-02T16:15:13.518Z,13.40
2019-05-02T16:17:42.553Z,13.29
2019-05-02T16:20:24.045Z,13.39
2019-05-02T16:22:56.966Z,13.48
2019-05-02T16:25:30.011Z,13.77
2019-05-02T16:28:06.101Z,13.92
2019-05-02T16:30:44.227Z,14.11
2019-05-02T16:33:18.881Z,14.09
2019-05-02T16:35:51.501Z,13.82
2019-05-02T16:38:26.927Z,13.42
2019-05-02T16:40:57.250Z,12.14
2019-05-02T16:43:32.764Z,10.19
2019-05-02T16:46:06.731Z,9.27
2019-05-02T16:48:42.487Z,8.69
2019-05-02T16:51:30.243Z,8.39
2019-05-02T16:53:49.392Z,8.30
2019-05-02T16:56:22.338Z,8.36
2019-05-02T16:58:55.137Z,8.49
2019-05-02T17:01:28.553Z,8.58
2019-05-02T17:04:06.501Z,8.49
2019-05-02T17:06:38.421Z,8.57
2019-05-02T17:09:33.834Z,8.69
2019-05-02T17:12:06.629Z,8.78
2019-05-02T17:14:43.552Z,9.00
2019-05-02T17:17:13.927Z,8.97
2019-05-02T17:19:47.098Z,8.91
2019-05-02T17:22:21.925Z,8.90
2019-05-02T17:24:57.077Z,8.89
2019-05-02T17:27:28.938Z,9.02
2019-05-02T17:30:03.753Z,9.05
2019-05-02T17:32:37.693Z,9.03
2019-05-02T17:35:14.590Z,9.02
2019-05-02T17:37:48.965Z,9.09
2019-05-02T17:40:25.894Z,9.04
2019-05-02T17:43:01.429Z,9.09
2019-05-02T17:45:33.313Z,9.07
2019-05-02T17:48:15.699Z,9.17
2019-05-02T17:51:12.382Z,9.20
2019-05-02T17:53:49.506Z,9.23
2019-05-02T17:56:22.622Z,9.19
2019-05-02T17:58:58.378Z,9.13
2019-05-02T18:01:35.256Z,9.13
2019-05-02T18:04:12.547Z,9.18
2019-05-02T18:06:46.906Z,9.11
2019-05-02T18:09:18.532Z,9.02
2019-05-02T18:11:51.760Z,9.02
2019-05-02T18:14:26.826Z,9.02
2019-05-02T18:16:59.619Z,8.99
2019-05-02T18:19:32.591Z,8.93
2019-05-02T18:22:08.328Z,8.88
2019-05-02T18:24:44.793Z,8.84
2019-05-02T18:27:14.696Z,8.85
2019-05-02T18:29:47.471Z,8.80
2019-05-02T18:32:22.785Z,8.70
2019-05-02T18:34:56.710Z,8.67
2019-05-02T18:37:29.492Z,8.68
2019-05-02T18:40:03.046Z,8.70
2019-05-02T18:42:35.865Z,8.74
2019-05-02T18:45:14.344Z,8.71
2019-05-02T18:47:47.446Z,8.69
2019-05-02T18:50:44.606Z,8.67
2019-05-02T18:53:18.681Z,8.68
2019-05-02T18:55:51.926Z,8.60
2019-05-02T18:58:24.939Z,8.54
2019-05-02T19:00:57.947Z,8.54
2019-05-02T19:03:30.752Z,8.53
2019-05-02T19:06:03.504Z,8.53
2019-05-02T19:08:46.848Z,8.56
2019-05-02T19:11:15.718Z,8.51
2019-05-02T19:13:48.555Z,8.43
2019-05-02T19:16:26.272Z,8.43
2019-05-02T19:18:57.443Z,8.48
2019-05-02T19:21:31.927Z,8.52
2019-05-02T19:24:04.826Z,8.45
2019-05-02T19:26:41.724Z,8.51
2019-05-02T19:29:25.941Z,8.52
2019-05-02T19:31:59.136Z,8.56
2019-05-02T19:34:32.371Z,8.54
2019-05-02T19:37:05.567Z,8.54
2019-05-02T19:39:44.711Z,8.56
2019-05-02T19:42:17.005Z,8.54
2019-05-02T19:44:48.828Z,8.61
2019-05-02T19:47:21.986Z,8.61
2019-05-02T19:49:54.999Z,8.60
2019-05-02T19:52:28.618Z,8.59
2019-05-02T19:55:01.547Z,8.54
2019-05-02T19:57:33.471Z,8.55
2019-05-02T20:00:06.674Z,8.57
2019-05-02T20:02:42.302Z,8.56
2019-05-02T20:05:16.480Z,8.60
2019-05-02T20:07:48.722Z,8.61
2019-05-02T20:10:22.694Z,8.60
2019-05-02T20:12:55.585Z,8.54
2019-05-02T20:15:30.903Z,8.54
2019-05-02T20:18:04.955Z,8.51
2019-05-02T20:20:55.846Z,8.52
2019-05-02T20:23:33.240Z,8.52
2019-05-02T20:26:03.081Z,8.53
2019-05-02T20:28:35.884Z,8.53
2019-05-02T20:31:08.755Z,8.51
2019-05-02T20:33:43.067Z,8.48
2019-05-02T20:36:17.138Z,8.55
2019-05-02T20:38:49.916Z,8.51
2019-05-02T20:41:22.608Z,8.47
2019-05-02T20:43:55.419Z,8.46
2019-05-02T20:46:28.083Z,8.50
2019-05-02T20:49:01.992Z,8.53
2019-05-02T20:51:35.603Z,8.53
2019-05-02T20:54:08.444Z,8.56
2019-05-02T20:56:42.673Z,8.55
2019-05-02T20:59:15.532Z,8.53
2019-05-02T21:01:48.475Z,8.55
2019-05-02T21:04:22.859Z,8.53
2019-05-02T21:07:17.733Z,8.51
2019-05-02T21:10:15.241Z,8.49
2019-05-02T21:12:48.052Z,8.49
2019-05-02T21:15:21.731Z,8.46
2019-05-02T21:17:54.570Z,8.44
2019-05-02T21:20:27.369Z,8.40
2019-05-02T21:23:02.006Z,8.44
2019-05-02T21:25:34.755Z,8.45
2019-05-02T21:28:07.799Z,8.42
2019-05-02T21:30:41.608Z,8.47
2019-05-02T21:33:36.624Z,8.51
2019-05-02T21:36:12.026Z,8.52
2019-05-02T21:38:44.871Z,8.54
2019-05-02T21:41:18.093Z,8.58
2019-05-02T21:43:51.829Z,8.52
2019-05-02T21:46:24.765Z,8.52
2019-05-02T21:48:57.493Z,8.53
2019-05-02T21:51:42.502Z,8.52
2019-05-02T21:54:34.104Z,8.56
2019-05-02T21:57:12.114Z,8.53
2019-05-02T21:59:44.967Z,8.55
2019-05-02T22:02:18.532Z,8.58
2019-05-02T22:04:52.901Z,8.59
2019-05-02T22:07:26.691Z,8.49
2019-05-02T22:09:59.408Z,8.44
2019-05-02T22:12:32.342Z,8.42
2019-05-02T22:15:05.769Z,8.46
2019-05-02T22:17:38.668Z,8.51
2019-05-02T22:20:12.353Z,8.57
2019-05-02T22:22:45.221Z,8.50
2019-05-02T22:25:17.948Z,8.56
2019-05-02T22:27:53.895Z,8.69
2019-05-02T22:30:25.260Z,8.68
2019-05-02T22:32:58.134Z,8.54
2019-05-02T22:35:31.016Z,8.54
2019-05-02T22:38:14.611Z,8.49
2019-05-02T22:40:49.896Z,8.38
2019-05-02T22:43:22.573Z,8.38
2019-05-02T22:45:55.362Z,8.32
2019-05-02T22:48:28.071Z,8.25
2019-05-02T22:51:00.779Z,8.33
2019-05-02T22:53:32.652Z,8.30
2019-05-02T22:56:05.353Z,8.24
2019-05-02T22:58:38.142Z,8.26
2019-05-02T23:01:10.950Z,8.28
2019-05-02T23:03:43.767Z,8.23
2019-05-02T23:06:16.457Z,8.31
2019-05-02T23:08:49.293Z,8.19
2019-05-02T23:11:24.499Z,8.12
2019-05-02T23:13:56.577Z,8.12
2019-05-02T23:16:29.308Z,8.04
2019-05-02T23:19:02.742Z,8.13
2019-05-02T23:21:35.555Z,8.04
2019-05-02T23:24:16.907Z,8.07
2019-05-02T23:27:02.894Z,8.10
2019-05-02T23:29:35.673Z,8.05
2019-05-02T23:32:08.391Z,8.01
2019-05-02T23:34:41.852Z,7.97
2019-05-02T23:37:14.526Z,8.02
2019-05-02T23:39:47.364Z,7.95
2019-05-02T23:42:21.846Z,7.95
2019-05-02T23:44:54.707Z,7.96
2019-05-02T23:47:27.406Z,7.97
2019-05-02T23:50:00.114Z,7.96
2019-05-02T23:52:32.894Z,7.91
2019-05-02T23:55:05.853Z,7.88
2019-05-02T23:57:38.664Z,7.87
